Time;durP1;ratioP1;P1;durP2;ratioP2;P2;SDS_P1;SDS_P2;PMS_P1;PMS_P2;Temp;Humidity;BMP_temperature;BMP_pressure;BME280_temperature;BME280_humidity;BME280_pressure;Samples;Min_cycle;Max_cycle;Signal;HPM_P1;HPM_P2
2023/01/05 00:01:34;;;;;;;;;4.25;4.00;;;;;;;;5077188;28;45389;-71
2023/01/05 00:03:59;;;;;;;;;9.75;4.00;;;;;;;;5080130;28;45395;-72
2023/01/05 00:06:24;;;;;;;;;7.00;3.75;;;;;;;;5079664;28;47599;-72
2023/01/05 00:08:49;;;;;;;;;5.50;4.50;;;;;;;;5079869;28;45416;-71
2023/01/05 00:22:30;;;;;;;;;9.25;4.50;;;;;;;;5079632;28;45370;-71
2023/01/05 00:25:06;;;;;;;;;9.00;3.00;;;;;;;;5079281;28;45443;-71
2023/01/05 00:27:32;;;;;;;;;8.50;5.25;;;;;;;;5079473;28;46522;-71
2023/01/05 00:29:57;;;;;;;;;6.00;3.00;;;;;;;;5079258;28;45355;-70
2023/01/05 00:32:22;;;;;;;;;5.50;2.50;;;;;;;;5079555;28;45276;-71
2023/01/05 00:34:49;;;;;;;;;10.75;6.00;;;;;;;;5079775;28;45229;-71
2023/01/05 00:37:14;;;;;;;;;9.00;3.75;;;;;;;;5059848;28;46690;-71
2023/01/05 00:39:40;;;;;;;;;7.75;4.75;;;;;;;;5079288;28;45447;-71
2023/01/05 00:42:05;;;;;;;;;2.25;2.25;;;;;;;;5079337;28;45781;-71
2023/01/05 00:44:30;;;;;;;;;9.25;5.25;;;;;;;;5079558;28;45253;-71
2023/01/05 00:46:55;;;;;;;;;5.50;2.25;;;;;;;;5078942;28;46923;-72
2023/01/05 00:49:21;;;;;;;;;7.00;3.00;;;;;;;;5079093;28;45201;-71
2023/01/05 00:51:46;;;;;;;;;12.25;6.25;;;;;;;;5079592;28;45470;-71
2023/01/05 00:54:11;;;;;;;;;7.00;4.00;;;;;;;;5079173;28;45339;-71
2023/01/05 00:56:36;;;;;;;;;7.50;3.00;;;;;;;;5078860;28;45964;-71
2023/01/05 00:59:02;;;;;;;;;6.75;3.00;;;;;;;;5077724;28;45312;-71
2023/01/05 01:01:27;;;;;;;;;5.75;4.00;;;;;;;;5079131;28;45487;-71
2023/01/05 01:03:52;;;;;;;;;4.50;3.00;;;;;;;;5061298;28;45522;-71
2023/01/05 01:06:17;;;;;;;;;7.75;3.00;;;;;;;;5078813;28;46704;-71
2023/01/05 01:08:43;;;;;;;;;8.00;3.75;;;;;;;;5078907;28;45394;-71
2023/01/05 01:11:08;;;;;;;;;6.00;3.25;;;;;;;;5079053;28;45308;-71
2023/01/05 01:13:34;;;;;;;;;4.25;3.00;;;;;;;;5078315;28;45415;-72
2023/01/05 01:16:09;;;;;;;;;13.00;3.25;;;;;;;;5078589;28;45479;-71
2023/01/05 01:18:35;;;;;;;;;9.25;4.00;;;;;;;;5078757;28;45290;-71
2023/01/05 01:21:00;;;;;;;;;10.00;2.00;;;;;;;;5078788;28;45411;-71
2023/01/05 01:23:25;;;;;;;;;6.75;3.75;;;;;;;;5079122;28;45380;-70
2023/01/05 01:25:51;;;;;;;;;9.75;3.00;;;;;;;;5078671;28;46066;-72
2023/01/05 01:28:16;;;;;;;;;7.25;3.50;;;;;;;;5078831;28;45263;-71
2023/01/05 01:30:41;;;;;;;;;8.50;3.00;;;;;;;;5078506;28;45296;-71
2023/01/05 01:33:06;;;;;;;;;5.00;2.25;;;;;;;;5078887;28;45497;-71
2023/01/05 01:35:31;;;;;;;;;5.00;3.50;;;;;;;;5078362;28;46665;-71
2023/01/05 01:37:57;;;;;;;;;6.25;3.00;;;;;;;;5078498;28;45279;-71
2023/01/05 01:40:22;;;;;;;;;9.25;7.00;;;;;;;;5078735;28;45386;-71
2023/01/05 01:42:47;;;;;;;;;9.25;6.00;;;;;;;;5078652;28;45363;-71
2023/01/05 01:45:12;;;;;;;;;7.75;3.25;;;;;;;;5078392;28;45469;-71
2023/01/05 01:47:46;;;;;;;;;7.25;5.00;;;;;;;;5077891;28;45845;-71
2023/01/05 01:50:17;;;;;;;;;6.00;3.50;;;;;;;;5078368;28;45345;-71
2023/01/05 01:52:44;;;;;;;;;5.25;2.25;;;;;;;;5078574;28;45454;-71
2023/01/05 01:55:10;;;;;;;;;8.50;3.25;;;;;;;;5078264;28;46786;-71
2023/01/05 01:57:35;;;;;;;;;7.75;2.50;;;;;;;;5078196;28;45417;-71
2023/01/05 02:00:03;;;;;;;;;7.50;5.00;;;;;;;;5078208;28;45261;-71
2023/01/05 02:02:28;;;;;;;;;3.50;2.75;;;;;;;;5078369;28;45412;-71
2023/01/05 02:04:56;;;;;;;;;3.75;2.00;;;;;;;;5077848;28;46316;-71
2023/01/05 02:07:23;;;;;;;;;4.25;2.75;;;;;;;;5078183;28;45400;-71
2023/01/05 02:09:48;;;;;;;;;6.00;4.00;;;;;;;;5078056;28;45408;-71
2023/01/05 02:12:35;;;;;;;;;9.00;3.50;;;;;;;;5078362;28;45539;-71
2023/01/05 02:15:19;;;;;;;;;12.75;4.00;;;;;;;;5077734;28;46894;-72
2023/01/05 02:18:04;;;;;;;;;9.00;4.00;;;;;;;;5077992;28;45335;-71
2023/01/05 02:20:38;;;;;;;;;12.00;6.00;;;;;;;;5078057;28;45519;-71
2023/01/05 02:23:09;;;;;;;;;7.00;6.00;;;;;;;;5078128;28;45427;-71
2023/01/05 02:25:46;;;;;;;;;11.75;5.00;;;;;;;;5076499;28;46294;-71
2023/01/05 02:28:11;;;;;;;;;5.75;3.75;;;;;;;;5077820;28;45483;-71
2023/01/05 02:30:53;;;;;;;;;9.50;3.75;;;;;;;;5077452;28;45380;-70
2023/01/05 02:33:31;;;;;;;;;12.25;4.25;;;;;;;;5077866;28;45430;-71
2023/01/05 02:36:02;;;;;;;;;4.75;3.50;;;;;;;;5077457;28;45520;-71
2023/01/05 02:39:03;;;;;;;;;8.50;5.00;;;;;;;;5077440;28;45478;-71
2023/01/05 02:41:37;;;;;;;;;7.50;3.25;;;;;;;;5015050;28;45551;-71
2023/01/05 02:44:06;;;;;;;;;7.00;4.75;;;;;;;;5015389;28;45484;-71
2023/01/05 02:46:31;;;;;;;;;5.75;1.50;;;;;;;;5014642;28;45388;-70
2023/01/05 02:48:57;;;;;;;;;11.50;5.00;;;;;;;;5014808;28;45680;-72
2023/01/05 02:51:26;;;;;;;;;8.00;3.00;;;;;;;;5015213;28;45361;-71
2023/01/05 02:53:54;;;;;;;;;10.00;6.50;;;;;;;;5015034;28;45295;-71
2023/01/05 02:56:25;;;;;;;;;7.75;2.50;;;;;;;;5014611;28;45439;-71
2023/01/05 02:59:01;;;;;;;;;11.50;4.75;;;;;;;;5014807;28;45448;-71
2023/01/05 03:01:33;;;;;;;;;13.50;4.75;;;;;;;;5014560;28;45609;-71
2023/01/05 03:04:12;;;;;;;;;6.75;4.00;;;;;;;;5014836;28;45594;-71
2023/01/05 03:06:45;;;;;;;;;5.25;5.25;;;;;;;;5014671;28;46416;-72
2023/01/05 03:09:11;;;;;;;;;11.25;6.50;;;;;;;;5013549;28;45452;-71
2023/01/05 03:14:37;;;;;;;;;12.00;4.75;;;;;;;;5019357;28;45391;-72
2023/01/05 03:17:04;;;;;;;;;5.50;5.00;;;;;;;;5076702;28;45701;-71
2023/01/05 03:19:38;;;;;;;;;9.75;4.00;;;;;;;;5077048;28;45432;-71
2023/01/05 03:35:55;;;;;;;;;10.50;4.00;;;;;;;;5076985;28;45811;-71
2023/01/05 03:38:23;;;;;;;;;8.25;4.25;;;;;;;;5079811;28;45663;-72
2023/01/05 03:40:50;;;;;;;;;11.50;5.00;;;;;;;;5080524;28;45308;-72
2023/01/05 03:43:16;;;;;;;;;6.25;3.00;;;;;;;;5080078;28;45452;-71
2023/01/05 03:45:43;;;;;;;;;11.00;5.50;;;;;;;;5080320;28;45404;-71
2023/01/05 03:48:08;;;;;;;;;9.75;4.00;;;;;;;;5080094;28;45583;-72
2023/01/05 03:50:34;;;;;;;;;15.00;2.00;;;;;;;;5080071;28;46016;-71
2023/01/05 03:53:00;;;;;;;;;6.75;3.75;;;;;;;;5080412;28;45359;-71
2023/01/05 03:55:25;;;;;;;;;9.50;5.00;;;;;;;;5080341;28;45479;-72
2023/01/05 03:57:50;;;;;;;;;14.25;3.75;;;;;;;;5080145;28;46117;-71
2023/01/05 04:00:15;;;;;;;;;8.00;4.00;;;;;;;;5079906;28;45321;-71
2023/01/05 04:02:41;;;;;;;;;6.75;4.25;;;;;;;;5079932;28;45597;-71
2023/01/05 04:05:06;;;;;;;;;11.75;5.50;;;;;;;;5080431;28;45352;-71
2023/01/05 04:07:31;;;;;;;;;11.50;5.25;;;;;;;;5079719;28;45634;-70
2023/01/05 04:09:56;;;;;;;;;6.25;3.00;;;;;;;;5080031;28;45461;-72
2023/01/05 04:12:22;;;;;;;;;4.00;4.00;;;;;;;;5080019;28;45340;-71
2023/01/05 04:14:47;;;;;;;;;7.25;4.50;;;;;;;;5079941;28;45634;-71
2023/01/05 04:17:12;;;;;;;;;6.25;4.50;;;;;;;;5079491;28;46617;-71
2023/01/05 04:19:37;;;;;;;;;7.75;4.75;;;;;;;;5079672;28;45224;-71
2023/01/05 04:22:02;;;;;;;;;7.25;5.25;;;;;;;;5079957;28;45250;-71
2023/01/05 04:24:27;;;;;;;;;6.25;4.75;;;;;;;;5079922;28;45245;-71
2023/01/05 04:26:53;;;;;;;;;7.50;3.75;;;;;;;;5079692;28;45379;-71
2023/01/05 04:29:18;;;;;;;;;6.50;2.00;;;;;;;;5079665;28;45332;-71
2023/01/05 04:31:43;;;;;;;;;8.00;2.00;;;;;;;;5079498;28;45329;-71
2023/01/05 04:34:08;;;;;;;;;11.25;3.25;;;;;;;;5079749;28;45329;-70
2023/01/05 04:36:33;;;;;;;;;10.75;2.00;;;;;;;;5079331;28;45503;-70
2023/01/05 04:38:59;;;;;;;;;14.50;5.50;;;;;;;;5079541;28;45362;-71
2023/01/05 04:41:24;;;;;;;;;10.75;5.50;;;;;;;;5079610;28;45427;-71
2023/01/05 04:43:49;;;;;;;;;7.50;3.50;;;;;;;;5079617;28;45440;-71
2023/01/05 04:46:14;;;;;;;;;8.50;4.00;;;;;;;;5079207;28;45417;-71
2023/01/05 04:48:39;;;;;;;;;8.25;5.00;;;;;;;;5078091;28;45435;-72
2023/01/05 04:51:05;;;;;;;;;8.00;5.00;;;;;;;;5079474;28;45379;-70
2023/01/05 04:53:32;;;;;;;;;4.00;4.00;;;;;;;;5079446;28;45301;-71
2023/01/05 04:55:57;;;;;;;;;7.75;5.50;;;;;;;;5078971;28;47316;-71
2023/01/05 04:58:22;;;;;;;;;5.50;3.75;;;;;;;;5079245;28;45365;-71
2023/01/05 05:00:48;;;;;;;;;7.25;5.00;;;;;;;;5079171;28;45379;-70
2023/01/05 05:03:13;;;;;;;;;7.50;4.00;;;;;;;;5079332;28;45374;-71
2023/01/05 05:05:38;;;;;;;;;8.75;4.00;;;;;;;;5078833;28;47526;-71
2023/01/05 05:08:04;;;;;;;;;11.00;4.50;;;;;;;;5078824;28;45955;-71
2023/01/05 05:10:29;;;;;;;;;8.50;4.50;;;;;;;;5079184;28;45423;-72
2023/01/05 05:12:54;;;;;;;;;6.50;3.50;;;;;;;;5079003;28;45426;-72
2023/01/05 05:15:20;;;;;;;;;7.50;4.00;;;;;;;;5079003;28;46755;-70
2023/01/05 05:17:45;;;;;;;;;7.50;3.50;;;;;;;;5078688;28;45741;-71
2023/01/05 05:20:10;;;;;;;;;14.50;3.25;;;;;;;;5078898;28;45538;-72
2023/01/05 05:22:36;;;;;;;;;11.50;5.50;;;;;;;;5060826;28;45480;-71
2023/01/05 05:25:01;;;;;;;;;7.00;3.25;;;;;;;;5078691;28;46373;-71
2023/01/05 05:27:26;;;;;;;;;6.50;5.00;;;;;;;;5078819;28;45433;-71
2023/01/05 05:29:51;;;;;;;;;9.75;4.00;;;;;;;;5078596;28;45408;-71
2023/01/05 05:32:17;;;;;;;;;5.75;3.50;;;;;;;;5078730;28;45539;-71
2023/01/05 05:34:42;;;;;;;;;4.25;2.25;;;;;;;;5078457;28;47238;-71
2023/01/05 05:37:07;;;;;;;;;7.00;2.25;;;;;;;;5078584;28;45237;-71
2023/01/05 05:39:32;;;;;;;;;6.00;3.25;;;;;;;;5078701;28;45281;-71
2023/01/05 05:41:58;;;;;;;;;8.00;5.50;;;;;;;;5078635;28;45630;-70
2023/01/05 05:44:23;;;;;;;;;10.25;5.25;;;;;;;;5078364;28;46444;-70
2023/01/05 05:46:48;;;;;;;;;13.00;4.50;;;;;;;;5078544;28;45196;-71
2023/01/05 05:49:13;;;;;;;;;5.00;4.75;;;;;;;;5078315;28;45300;-71
2023/01/05 05:51:39;;;;;;;;;10.25;3.50;;;;;;;;5078671;28;45454;-71
2023/01/05 05:54:04;;;;;;;;;10.50;6.50;;;;;;;;5078074;28;46283;-72
2023/01/05 05:56:29;;;;;;;;;9.50;4.50;;;;;;;;5078164;28;45383;-71
2023/01/05 05:58:54;;;;;;;;;5.50;3.25;;;;;;;;5078337;28;45708;-71
2023/01/05 06:01:20;;;;;;;;;9.00;3.00;;;;;;;;5065054;27;45448;-71
2023/01/05 06:03:45;;;;;;;;;13.50;6.25;;;;;;;;5066704;28;46594;-71
2023/01/05 06:06:10;;;;;;;;;7.75;5.00;;;;;;;;5057804;28;45180;-71
2023/01/05 06:08:35;;;;;;;;;14.00;5.25;;;;;;;;5057773;28;45388;-71
2023/01/05 06:11:01;;;;;;;;;7.00;5.00;;;;;;;;5058109;28;45430;-71
2023/01/05 06:13:26;;;;;;;;;10.75;5.50;;;;;;;;5057523;28;46632;-71
2023/01/05 06:15:51;;;;;;;;;5.75;5.75;;;;;;;;5057329;28;45416;-71
2023/01/05 06:18:16;;;;;;;;;8.00;5.25;;;;;;;;5057532;28;45302;-71
2023/01/05 06:20:42;;;;;;;;;6.25;6.25;;;;;;;;5058081;28;45368;-71
2023/01/05 06:23:07;;;;;;;;;12.00;3.25;;;;;;;;5057336;28;46560;-71
2023/01/05 06:25:32;;;;;;;;;8.00;3.25;;;;;;;;5057562;28;45484;-71
2023/01/05 06:27:58;;;;;;;;;6.50;3.25;;;;;;;;5057793;28;45434;-71
2023/01/05 06:30:24;;;;;;;;;7.50;4.00;;;;;;;;5057468;28;45361;-70
2023/01/05 06:32:50;;;;;;;;;8.75;4.75;;;;;;;;5057038;28;45519;-71
2023/01/05 06:35:15;;;;;;;;;6.75;4.50;;;;;;;;5057238;28;45450;-70
2023/01/05 06:37:40;;;;;;;;;17.25;4.00;;;;;;;;5057399;28;45435;-71
2023/01/05 06:40:07;;;;;;;;;38.00;30.67;;;;;;;;5057707;28;45365;-70
2023/01/05 06:42:32;;;;;;;;;4.00;3.00;;;;;;;;5057059;28;46976;-71
2023/01/05 06:44:58;;;;;;;;;12.25;8.00;;;;;;;;5057340;28;45368;-71
2023/01/05 06:47:23;;;;;;;;;8.00;6.00;;;;;;;;5057263;28;45336;-71
2023/01/05 06:49:48;;;;;;;;;15.75;5.25;;;;;;;;5057177;28;45357;-71
2023/01/05 06:52:13;;;;;;;;;4.25;4.00;;;;;;;;5057214;28;46318;-71
2023/01/05 06:54:38;;;;;;;;;6.25;4.25;;;;;;;;5056737;28;45734;-71
2023/01/05 06:57:05;;;;;;;;;7.75;4.50;;;;;;;;5057045;28;45360;-70
2023/01/05 06:59:30;;;;;;;;;9.25;5.00;;;;;;;;5057371;28;45554;-71
2023/01/05 07:01:56;;;;;;;;;13.25;3.75;;;;;;;;5056828;28;45529;-71
2023/01/05 07:04:21;;;;;;;;;8.00;5.75;;;;;;;;5056833;28;45378;-71
2023/01/05 07:06:46;;;;;;;;;13.25;5.75;;;;;;;;5057022;28;45298;-71
2023/01/05 07:09:11;;;;;;;;;10.25;5.00;;;;;;;;5057285;28;45336;-71
2023/01/05 07:11:37;;;;;;;;;7.75;4.50;;;;;;;;5057488;28;46316;-71
2023/01/05 07:14:02;;;;;;;;;16.00;8.75;;;;;;;;5060101;28;45300;-71
2023/01/05 07:16:27;;;;;;;;;4.50;3.00;;;;;;;;5060549;28;45757;-71
2023/01/05 07:18:52;;;;;;;;;12.00;5.25;;;;;;;;5060790;28;45462;-71
2023/01/05 07:21:18;;;;;;;;;6.00;5.00;;;;;;;;5060327;28;46200;-70
2023/01/05 07:23:43;;;;;;;;;12.25;6.00;;;;;;;;5060310;28;45300;-69
2023/01/05 07:26:08;;;;;;;;;4.75;4.00;;;;;;;;5060194;28;45313;-71
2023/01/05 07:28:34;;;;;;;;;6.25;5.00;;;;;;;;5060521;28;45417;-71
2023/01/05 07:30:59;;;;;;;;;5.25;3.00;;;;;;;;5059877;28;46728;-70
2023/01/05 07:33:24;;;;;;;;;4.50;3.25;;;;;;;;5059959;28;45427;-71
2023/01/05 07:35:50;;;;;;;;;16.25;7.50;;;;;;;;5060359;28;45818;-71
2023/01/05 07:38:15;;;;;;;;;5.50;4.00;;;;;;;;5060364;28;45298;-70
2023/01/05 07:40:40;;;;;;;;;6.75;3.00;;;;;;;;5060024;28;45389;-70
2023/01/05 07:43:05;;;;;;;;;6.75;4.00;;;;;;;;5059954;28;45607;-71
2023/01/05 07:45:30;;;;;;;;;9.00;5.00;;;;;;;;5060122;28;45388;-71
2023/01/05 07:47:56;;;;;;;;;6.00;3.75;;;;;;;;5060263;28;45821;-71
2023/01/05 07:50:21;;;;;;;;;7.75;5.50;;;;;;;;5058853;28;46267;-72
2023/01/05 07:52:46;;;;;;;;;4.75;3.00;;;;;;;;5059704;28;45532;-70
2023/01/05 07:55:11;;;;;;;;;7.00;4.50;;;;;;;;5059979;28;45368;-71
2023/01/05 07:57:37;;;;;;;;;8.50;4.50;;;;;;;;5060054;28;45333;-71
2023/01/05 08:00:03;;;;;;;;;6.25;4.00;;;;;;;;5058013;28;47036;-71
2023/01/05 08:02:28;;;;;;;;;8.00;3.25;;;;;;;;5059836;28;45998;-70
2023/01/05 08:04:53;;;;;;;;;4.50;4.50;;;;;;;;5059308;28;45845;-71
2023/01/05 08:07:18;;;;;;;;;5.75;3.25;;;;;;;;5059821;28;45213;-70
2023/01/05 08:12:28;;;;;;;;;9.75;4.00;;;;;;;;5059529;28;45380;-71
2023/01/05 08:14:53;;;;;;;;;8.25;5.75;;;;;;;;5059429;28;45510;-71
2023/01/05 08:17:18;;;;;;;;;8.75;4.25;;;;;;;;5059751;28;45469;-71
2023/01/05 08:19:44;;;;;;;;;10.25;5.50;;;;;;;;5059120;28;46792;-71
2023/01/05 08:22:09;;;;;;;;;15.67;15.00;;;;;;;;5059200;28;45445;-72
2023/01/05 08:24:34;;;;;;;;;10.00;6.25;;;;;;;;5059199;28;45507;-71
2023/01/05 08:26:59;;;;;;;;;8.00;5.00;;;;;;;;5059374;28;45384;-71
2023/01/05 08:29:24;;;;;;;;;13.50;6.00;;;;;;;;5059107;28;45434;-70
2023/01/05 08:31:50;;;;;;;;;8.25;4.50;;;;;;;;5059062;28;45421;-70
2023/01/05 08:34:15;;;;;;;;;12.00;5.00;;;;;;;;5059147;28;45419;-71
2023/01/05 08:36:40;;;;;;;;;8.50;3.50;;;;;;;;5059220;28;45421;-70
2023/01/05 08:39:05;;;;;;;;;4.50;3.75;;;;;;;;5058928;28;46680;-71
2023/01/05 08:41:32;;;;;;;;;11.25;4.75;;;;;;;;5066415;28;45511;-71
2023/01/05 08:43:59;;;;;;;;;34.00;30.00;;;;;;;;5079196;28;45459;-71
2023/01/05 08:46:25;;;;;;;;;6.75;6.00;;;;;;;;5079463;28;45598;-71
2023/01/05 08:48:51;;;;;;;;;10.75;9.00;;;;;;;;5078971;28;45588;-71
2023/01/05 08:51:17;;;;;;;;;13.00;6.50;;;;;;;;5078849;28;45392;-70
2023/01/05 08:53:42;;;;;;;;;10.75;8.00;;;;;;;;5079325;28;45443;-71
2023/01/05 08:56:09;;;;;;;;;14.75;7.25;;;;;;;;5079345;28;45758;-70
2023/01/05 08:58:35;;;;;;;;;9.50;5.00;;;;;;;;5078742;28;46700;-71
2023/01/05 09:01:00;;;;;;;;;19.25;7.00;;;;;;;;5079032;28;45433;-71
2023/01/05 09:03:25;;;;;;;;;9.50;4.25;;;;;;;;5079055;27;45419;-70
2023/01/05 09:05:53;;;;;;;;;40.00;28.00;;;;;;;;5079150;27;45357;-71
2023/01/05 09:08:19;;;;;;;;;64.50;51.00;;;;;;;;5078821;28;46207;-71
2023/01/05 09:10:44;;;;;;;;;16.75;12.50;;;;;;;;5078730;28;45288;-71
2023/01/05 09:13:10;;;;;;;;;12.75;10.25;;;;;;;;5079063;28;45766;-71
2023/01/05 09:15:36;;;;;;;;;40.33;33.67;;;;;;;;5060845;28;45432;-71
2023/01/05 09:18:01;;;;;;;;;12.00;7.50;;;;;;;;5078713;27;46357;-71
2023/01/05 09:20:26;;;;;;;;;12.50;7.50;;;;;;;;5078503;28;45347;-71
2023/01/05 09:22:51;;;;;;;;;11.50;8.00;;;;;;;;5078816;27;45337;-71
2023/01/05 09:25:16;;;;;;;;;7.00;5.00;;;;;;;;5079136;27;45296;-71
2023/01/05 09:27:42;;;;;;;;;8.50;2.00;;;;;;;;5078568;28;46394;-71
2023/01/05 09:30:07;;;;;;;;;41.33;35.33;;;;;;;;5078509;28;45387;-71
2023/01/05 09:32:35;;;;;;;;;8.67;6.33;;;;;;;;5078563;28;45318;-71
2023/01/05 09:35:00;;;;;;;;;11.25;6.00;;;;;;;;5078016;27;45313;-71
2023/01/05 09:37:25;;;;;;;;;11.75;5.50;;;;;;;;5078465;28;46524;-71
2023/01/05 09:39:50;;;;;;;;;11.75;6.50;;;;;;;;5078534;28;45487;-71
2023/01/05 09:42:18;;;;;;;;;13.00;12.00;;;;;;;;5078593;28;45380;-70
2023/01/05 09:44:48;;;;;;;;;9.75;7.00;;;;;;;;5078620;27;45403;-70
2023/01/05 09:47:30;;;;;;;;;15.75;8.75;;;;;;;;5078186;27;46382;-71
2023/01/05 09:49:56;;;;;;;;;13.00;7.75;;;;;;;;5078104;28;45522;-70
2023/01/05 09:52:21;;;;;;;;;20.33;16.00;;;;;;;;5078572;28;45545;-71
2023/01/05 09:54:47;;;;;;;;;35.00;30.00;;;;;;;;5078436;27;45334;-71
2023/01/05 09:57:17;;;;;;;;;12.67;8.00;;;;;;;;5078222;28;47225;-71
2023/01/05 09:59:44;;;;;;;;;10.25;7.75;;;;;;;;5078079;28;45519;-71
2023/01/05 10:02:29;;;;;;;;;10.00;7.00;;;;;;;;5078224;28;45382;-71
2023/01/05 10:04:55;;;;;;;;;11.75;5.25;;;;;;;;5063542;28;45920;-72
2023/01/05 10:07:39;;;;;;;;;15.75;6.75;;;;;;;;5077950;28;46763;-71
2023/01/05 10:10:10;;;;;;;;;13.75;10.00;;;;;;;;5077864;28;45357;-71
2023/01/05 10:15:26;;;;;;;;;12.25;7.25;;;;;;;;5078210;28;45420;-71
2023/01/05 10:17:51;;;;;;;;;10.75;6.00;;;;;;;;5077926;28;45498;-71
2023/01/05 10:20:20;;;;;;;;;9.25;6.00;;;;;;;;5077731;28;45487;-70
2023/01/05 10:22:51;;;;;;;;;9.50;6.25;;;;;;;;5077934;28;45308;-71
2023/01/05 10:25:30;;;;;;;;;9.50;9.00;;;;;;;;5078011;28;45434;-71
2023/01/05 10:28:11;;;;;;;;;11.00;6.75;;;;;;;;5077628;28;46283;-71
2023/01/05 10:30:47;;;;;;;;;11.25;7.75;;;;;;;;5077440;28;45360;-71
2023/01/05 10:33:20;;;;;;;;;9.75;5.00;;;;;;;;5077691;28;45263;-71
2023/01/05 10:35:52;;;;;;;;;11.50;6.25;;;;;;;;5077679;28;45438;-71
2023/01/05 10:38:32;;;;;;;;;8.00;5.75;;;;;;;;5077617;27;46195;-71
2023/01/05 10:41:17;;;;;;;;;15.50;8.00;;;;;;;;5077659;28;45356;-71
2023/01/05 10:44:00;;;;;;;;;12.25;5.50;;;;;;;;5077025;28;45292;-71
2023/01/05 10:46:25;;;;;;;;;13.50;6.50;;;;;;;;5076565;28;45962;-72
2023/01/05 10:48:50;;;;;;;;;7.50;6.00;;;;;;;;5077089;28;46441;-72
2023/01/05 10:51:16;;;;;;;;;12.00;9.75;;;;;;;;5077335;28;45447;-71
2023/01/05 10:53:42;;;;;;;;;12.00;7.25;;;;;;;;5077351;28;45403;-71
2023/01/05 10:56:08;;;;;;;;;10.75;8.25;;;;;;;;5077690;28;45378;-72
2023/01/05 10:58:37;;;;;;;;;9.50;6.75;;;;;;;;5077254;28;45340;-72
2023/01/05 11:01:16;;;;;;;;;12.50;5.50;;;;;;;;5077251;28;45367;-72
2023/01/05 11:03:43;;;;;;;;;10.50;7.00;;;;;;;;5077606;28;45379;-72
2023/01/05 11:06:17;;;;;;;;;13.75;10.00;;;;;;;;5077524;28;45399;-71
2023/01/05 11:08:42;;;;;;;;;15.50;6.75;;;;;;;;5077068;28;46226;-71
2023/01/05 11:11:08;;;;;;;;;9.50;5.50;;;;;;;;5077311;28;45445;-71
2023/01/05 11:13:41;;;;;;;;;7.75;6.00;;;;;;;;5076943;28;45370;-71
2023/01/05 11:16:09;;;;;;;;;9.00;5.00;;;;;;;;5077369;28;45407;-71
2023/01/05 11:18:40;;;;;;;;;6.75;5.50;;;;;;;;5077016;28;47365;-72
2023/01/05 11:21:16;;;;;;;;;8.00;4.00;;;;;;;;5076949;28;45512;-71
2023/01/05 11:23:46;;;;;;;;;10.25;3.25;;;;;;;;5076981;28;45516;-72
2023/01/05 11:26:17;;;;;;;;;4.25;4.00;;;;;;;;5077205;28;45418;-71
2023/01/05 11:29:01;;;;;;;;;9.25;3.00;;;;;;;;5076794;28;47457;-71
2023/01/05 11:31:47;;;;;;;;;5.75;2.75;;;;;;;;5076999;28;45357;-71
2023/01/05 11:34:18;;;;;;;;;6.00;2.50;;;;;;;;5062723;27;45431;-72
2023/01/05 11:36:50;;;;;;;;;6.75;1.50;;;;;;;;5076866;28;45436;-72
2023/01/05 11:39:18;;;;;;;;;3.50;2.75;;;;;;;;5076556;28;46415;-71
2023/01/05 11:41:43;;;;;;;;;2.50;2.00;;;;;;;;5076916;28;45604;-71
2023/01/05 11:44:17;;;;;;;;;2.75;1.00;;;;;;;;5076850;28;45356;-71
2023/01/05 11:46:42;;;;;;;;;3.50;3.00;;;;;;;;5076915;28;45578;-71
2023/01/05 11:49:08;;;;;;;;;0.25;0.25;;;;;;;;5076583;28;46706;-71
2023/01/05 11:51:33;;;;;;;;;1.25;1.00;;;;;;;;5076465;28;45578;-71
2023/01/05 11:53:59;;;;;;;;;2.50;1.00;;;;;;;;5076828;28;45376;-72
2023/01/05 11:56:24;;;;;;;;;1.00;1.00;;;;;;;;5076887;28;45477;-71
2023/01/05 11:58:50;;;;;;;;;0.50;0.25;;;;;;;;5078950;27;45315;-71
2023/01/05 12:01:28;;;;;;;;;0.00;0.00;;;;;;;;5080002;28;45423;-71
2023/01/05 12:04:05;;;;;;;;;0.00;0.00;;;;;;;;5080181;28;45365;-71
2023/01/05 12:06:45;;;;;;;;;1.00;0.00;;;;;;;;5080058;28;45510;-71
2023/01/05 12:09:29;;;;;;;;;0.50;0.00;;;;;;;;5079788;27;45583;-70
2023/01/05 12:12:00;;;;;;;;;0.00;0.00;;;;;;;;5079917;28;45407;-71
2023/01/05 12:14:44;;;;;;;;;0.00;0.00;;;;;;;;5080068;28;45440;-71
2023/01/05 12:17:13;;;;;;;;;2.00;1.00;;;;;;;;5080212;27;45179;-71
2023/01/05 12:19:48;;;;;;;;;8.25;7.50;;;;;;;;5079475;28;47097;-70
2023/01/05 12:22:32;;;;;;;;;3.00;1.50;;;;;;;;5079636;28;45474;-72
2023/01/05 12:25:09;;;;;;;;;1.00;1.00;;;;;;;;5079721;27;45357;-71
2023/01/05 12:27:45;;;;;;;;;2.25;0.00;;;;;;;;5079999;28;45464;-72
2023/01/05 12:30:10;;;;;;;;;1.00;1.00;;;;;;;;5079455;28;45789;-71
2023/01/05 12:32:38;;;;;;;;;2.00;1.00;;;;;;;;5079499;27;45326;-71
2023/01/05 12:35:06;;;;;;;;;1.00;1.00;;;;;;;;5079652;28;45308;-71
2023/01/05 12:37:46;;;;;;;;;4.00;1.00;;;;;;;;5079618;28;45415;-71
2023/01/05 12:40:17;;;;;;;;;4.75;3.75;;;;;;;;5079296;28;45669;-71
2023/01/05 12:42:55;;;;;;;;;2.75;2.75;;;;;;;;5079471;28;45247;-72
2023/01/05 12:45:29;;;;;;;;;3.00;1.25;;;;;;;;5079559;28;45395;-71
2023/01/05 12:48:10;;;;;;;;;1.75;1.75;;;;;;;;5079616;28;45425;-71
2023/01/05 12:50:41;;;;;;;;;1.00;1.00;;;;;;;;5079037;28;46489;-72
2023/01/05 12:53:12;;;;;;;;;0.00;0.00;;;;;;;;5079121;28;45383;-71
2023/01/05 12:55:41;;;;;;;;;1.00;1.00;;;;;;;;5079478;28;45429;-71
2023/01/05 12:58:13;;;;;;;;;1.50;1.50;;;;;;;;5079370;28;45439;-71
2023/01/05 13:00:44;;;;;;;;;1.00;1.00;;;;;;;;5078977;28;46402;-71
2023/01/05 13:03:16;;;;;;;;;1.00;1.00;;;;;;;;5078972;28;45433;-71
2023/01/05 13:05:44;;;;;;;;;2.00;2.00;;;;;;;;5079278;28;45854;-72
2023/01/05 13:08:23;;;;;;;;;13.00;12.00;;;;;;;;5079109;28;45352;-71
2023/01/05 13:10:58;;;;;;;;;1.25;1.25;;;;;;;;5077825;28;46575;-71
2023/01/05 13:13:27;;;;;;;;;1.25;1.25;;;;;;;;5078922;28;45302;-70
2023/01/05 13:15:52;;;;;;;;;0.25;0.25;;;;;;;;5079059;28;45402;-71
2023/01/05 13:18:20;;;;;;;;;4.00;1.00;;;;;;;;5079076;28;45458;-71
2023/01/05 13:20:49;;;;;;;;;2.25;2.00;;;;;;;;5078823;28;45712;-71
2023/01/05 13:23:35;;;;;;;;;0.00;0.00;;;;;;;;5078624;27;46159;-71
2023/01/05 13:26:00;;;;;;;;;1.00;1.00;;;;;;;;5078156;28;45388;-71
2023/01/05 13:28:26;;;;;;;;;0.50;0.50;;;;;;;;5079040;27;45304;-70
2023/01/05 13:30:54;;;;;;;;;10.33;10.33;;;;;;;;5078245;27;46097;-71
2023/01/05 13:33:22;;;;;;;;;1.50;1.00;;;;;;;;5078426;27;45413;-71
2023/01/05 13:35:47;;;;;;;;;1.00;1.00;;;;;;;;5078847;28;45633;-71
2023/01/05 13:38:27;;;;;;;;;5.50;2.00;;;;;;;;5078719;28;45412;-70
2023/01/05 13:41:14;;;;;;;;;1.00;1.00;;;;;;;;5078326;28;45513;-72
2023/01/05 13:44:03;;;;;;;;;1.75;1.00;;;;;;;;5078477;28;45412;-71
2023/01/05 13:46:44;;;;;;;;;1.00;1.00;;;;;;;;4996000;28;45440;-70
2023/01/05 13:49:15;;;;;;;;;0.75;0.75;;;;;;;;4996118;28;45434;-71
2023/01/05 13:51:48;;;;;;;;;0.25;0.25;;;;;;;;4995942;28;45389;-71
2023/01/05 13:54:26;;;;;;;;;2.25;2.25;;;;;;;;4995774;28;45887;-71
2023/01/05 13:56:51;;;;;;;;;2.00;1.00;;;;;;;;4995949;28;45637;-71
2023/01/05 13:59:30;;;;;;;;;1.75;1.00;;;;;;;;4996111;28;45431;-70
2023/01/05 14:01:59;;;;;;;;;1.25;1.00;;;;;;;;4995910;28;46209;-71
2023/01/05 14:04:26;;;;;;;;;0.75;0.75;;;;;;;;4995807;28;45455;-71
2023/01/05 14:06:54;;;;;;;;;1.00;1.00;;;;;;;;4995677;28;45409;-72
2023/01/05 14:09:25;;;;;;;;;2.00;2.00;;;;;;;;4979819;28;45426;-71
2023/01/05 14:12:06;;;;;;;;;2.00;2.00;;;;;;;;4995681;28;47519;-71
2023/01/05 14:14:51;;;;;;;;;3.00;0.00;;;;;;;;4995313;28;45517;-71
2023/01/05 14:17:36;;;;;;;;;0.00;0.00;;;;;;;;4995530;28;45453;-71
2023/01/05 14:20:01;;;;;;;;;1.00;1.00;;;;;;;;4995810;28;45351;-70
2023/01/05 14:22:35;;;;;;;;;0.00;0.00;;;;;;;;5001076;28;45596;-70
2023/01/05 14:25:18;;;;;;;;;1.00;1.00;;;;;;;;5077808;28;45357;-71
2023/01/05 14:28:09;;;;;;;;;2.00;1.75;;;;;;;;5077975;28;45423;-71
2023/01/05 14:30:35;;;;;;;;;0.25;0.00;;;;;;;;5077552;28;45463;-71
2023/01/05 14:33:04;;;;;;;;;0.50;0.50;;;;;;;;5077549;28;46361;-71
2023/01/05 14:35:31;;;;;;;;;0.00;0.00;;;;;;;;5077623;28;45302;-72
2023/01/05 14:37:56;;;;;;;;;1.25;0.00;;;;;;;;5077687;28;45552;-71
2023/01/05 14:40:31;;;;;;;;;1.00;1.00;;;;;;;;5077765;28;45320;-71
2023/01/05 14:42:56;;;;;;;;;0.00;0.00;;;;;;;;5077552;28;47319;-71
2023/01/05 14:45:32;;;;;;;;;0.00;0.00;;;;;;;;5077504;28;45315;-71
2023/01/05 14:47:59;;;;;;;;;1.00;0.00;;;;;;;;5077653;27;45316;-71
2023/01/05 14:50:24;;;;;;;;;0.00;0.00;;;;;;;;5077702;28;45390;-72
2023/01/05 14:52:52;;;;;;;;;0.75;0.75;;;;;;;;5077116;28;47122;-71
2023/01/05 14:55:31;;;;;;;;;4.25;3.00;;;;;;;;5077073;28;45531;-71
2023/01/05 14:57:58;;;;;;;;;1.00;1.00;;;;;;;;5077546;28;45353;-72
2023/01/05 15:00:39;;;;;;;;;1.25;1.25;;;;;;;;5077530;28;45497;-72
2023/01/05 15:03:07;;;;;;;;;0.00;0.00;;;;;;;;5077192;27;45442;-72
2023/01/05 15:05:33;;;;;;;;;2.75;2.00;;;;;;;;5077424;28;45661;-72
2023/01/05 15:07:58;;;;;;;;;2.00;2.00;;;;;;;;5077073;27;45434;-72
2023/01/05 15:10:29;;;;;;;;;0.00;0.00;;;;;;;;5077383;28;45446;-72
2023/01/05 15:13:06;;;;;;;;;8.25;8.00;;;;;;;;5077273;28;46821;-72
2023/01/05 15:15:31;;;;;;;;;5.25;4.75;;;;;;;;5076974;27;45428;-72
2023/01/05 15:18:15;;;;;;;;;5.25;5.25;;;;;;;;5077119;28;45620;-72
2023/01/05 15:20:46;;;;;;;;;2.00;2.00;;;;;;;;5077307;28;45437;-73